createdAt,value
2023-02-19T00:04:56.816Z,101622.00
2023-02-19T00:09:58.362Z,101619.41
2023-02-19T00:14:59.922Z,101630.31
2023-02-19T00:20:01.405Z,101632.88
2023-02-19T00:25:07.025Z,101636.19
2023-02-19T00:30:09.381Z,101634.31
2023-02-19T00:35:10.885Z,101641.78
2023-02-19T00:40:12.601Z,101639.06
2023-02-19T00:45:14.154Z,101649.22
2023-02-19T00:50:16.365Z,101636.91
2023-02-19T00:55:18.012Z,101639.91
2023-02-19T01:00:19.629Z,101638.59
2023-02-19T01:05:21.520Z,101648.75
2023-02-19T01:10:23.070Z,101646.78
2023-02-19T01:15:24.618Z,101652.75
2023-02-19T01:20:26.579Z,101659.22
2023-02-19T01:25:28.296Z,101657.06
2023-02-19T01:30:29.880Z,101667.09
2023-02-19T01:35:31.389Z,101661.47
2023-02-19T01:40:32.907Z,101659.56
2023-02-19T01:45:35.728Z,101659.44
2023-02-19T01:50:54.058Z,101667.25
2023-02-19T01:55:59.857Z,101664.38
2023-02-19T02:01:04.618Z,101666.34
2023-02-19T02:06:23.579Z,101668.22
2023-02-19T02:11:25.307Z,101677.63
2023-02-19T02:17:12.844Z,101688.13
2023-02-19T02:22:26.802Z,101678.28
2023-02-19T02:27:35.611Z,101684.59
2023-02-19T02:33:15.647Z,101692.75
2023-02-19T02:38:20.653Z,101686.06
2023-02-19T02:43:22.181Z,101687.53
2023-02-19T02:48:42.278Z,101689.81
2023-02-19T02:54:21.219Z,101690.88
2023-02-19T02:59:28.289Z,101700.06
2023-02-19T03:05:26.182Z,101706.34
2023-02-19T03:10:50.581Z,101706.75
2023-02-19T03:16:17.671Z,101721.53
2023-02-19T03:21:21.989Z,101714.47
2023-02-19T03:26:26.200Z,101719.22
2023-02-19T03:31:31.729Z,101726.03
2023-02-19T03:36:40.106Z,101733.47
2023-02-19T03:41:58.711Z,101737.66
2023-02-19T03:47:14.326Z,101742.94
2023-02-19T03:52:31.475Z,101752.06
2023-02-19T03:57:44.682Z,101765.66
2023-02-19T04:03:41.748Z,101761.94
2023-02-19T04:08:47.829Z,101776.41
2023-02-19T04:13:58.342Z,101781.59
2023-02-19T04:19:05.235Z,101785.31
2023-02-19T04:24:14.956Z,101796.06
2023-02-19T04:29:16.446Z,101802.66
2023-02-19T04:34:17.959Z,101811.19
2023-02-19T04:39:19.668Z,101824.66
2023-02-19T04:44:21.379Z,101830.09
2023-02-19T04:49:22.929Z,101835.69
2023-02-19T04:54:24.520Z,101841.78
2023-02-19T04:59:26.085Z,101853.66
2023-02-19T05:04:27.632Z,101854.66
2023-02-19T05:09:29.161Z,101854.75
2023-02-19T05:14:30.680Z,101861.19
2023-02-19T05:19:32.307Z,101864.78
2023-02-19T05:24:33.922Z,101884.44
2023-02-19T05:29:35.453Z,101882.72
2023-02-19T05:34:36.971Z,101885.44
2023-02-19T05:39:38.481Z,101891.13
2023-02-19T05:44:39.981Z,101904.97
2023-02-19T05:49:41.516Z,101903.78
2023-02-19T05:54:43.031Z,101916.75
2023-02-19T05:59:44.520Z,101925.06
2023-02-19T06:04:46.052Z,101939.88
2023-02-19T06:09:50.747Z,101945.31
2023-02-19T06:14:52.334Z,101946.94
2023-02-19T06:19:53.867Z,101957.19
2023-02-19T06:24:55.396Z,101960.69
2023-02-19T06:29:56.967Z,101975.16
2023-02-19T06:34:58.457Z,101994.78
2023-02-19T06:39:59.930Z,102002.19
2023-02-19T06:45:01.397Z,102002.69
2023-02-19T06:50:02.917Z,102015.91
2023-02-19T06:55:04.607Z,102032.53
2023-02-19T07:00:06.551Z,102041.75
2023-02-19T07:05:08.032Z,102060.09
2023-02-19T07:10:09.584Z,102060.38
2023-02-19T07:15:11.139Z,102072.44
2023-02-19T07:20:13.170Z,102080.59
2023-02-19T07:25:14.676Z,102089.72
2023-02-19T07:30:16.348Z,102102.91
2023-02-19T07:35:17.921Z,102095.94
2023-02-19T07:40:19.512Z,102110.84
2023-02-19T07:45:21.019Z,102123.47
2023-02-19T07:50:22.533Z,102130.22
2023-02-19T07:55:24.026Z,102138.31
2023-02-19T08:00:26.180Z,102155.81
2023-02-19T08:05:28.853Z,102162.22
2023-02-19T08:10:48.987Z,102179.69
2023-02-19T08:15:51.643Z,102201.34
2023-02-19T08:20:54.905Z,102207.94
2023-02-19T08:26:01.200Z,102198.81
2023-02-19T08:31:07.063Z,102202.16
2023-02-19T08:36:09.813Z,102202.69
2023-02-19T08:41:13.810Z,102225.91
2023-02-19T08:46:15.564Z,102227.75
2023-02-19T08:51:17.029Z,102232.84
2023-02-19T08:56:18.700Z,102236.09
2023-02-19T09:01:20.248Z,102267.16
2023-02-19T09:06:21.852Z,102276.06
2023-02-19T09:11:23.354Z,102281.06
2023-02-19T09:16:24.909Z,102314.28
2023-02-19T09:21:26.381Z,102320.28
2023-02-19T09:26:27.881Z,102333.06
2023-02-19T09:31:29.587Z,102342.09
2023-02-19T09:36:32.128Z,102333.50
2023-02-19T09:41:45.155Z,102340.47
2023-02-19T09:46:49.991Z,102348.03
2023-02-19T09:51:56.411Z,102371.69
2023-02-19T09:57:01.391Z,102385.59
2023-02-19T10:02:10.388Z,102402.84
2023-02-19T10:07:16.475Z,102416.34
2023-02-19T10:12:26.012Z,102430.16
2023-02-19T10:17:31.450Z,102436.78
2023-02-19T10:22:36.545Z,102420.66
2023-02-19T10:27:38.194Z,102431.53
2023-02-19T10:33:02.129Z,102451.56
2023-02-19T10:38:06.759Z,102425.91
2023-02-19T10:43:31.148Z,102418.75
2023-02-19T10:48:37.467Z,102423.09
2023-02-19T10:54:04.044Z,102424.94
2023-02-19T10:59:20.744Z,102441.66
2023-02-19T11:04:22.276Z,102460.56
2023-02-19T11:09:42.881Z,102472.72
2023-02-19T11:14:45.419Z,102476.88
2023-02-19T11:19:48.740Z,102475.13
2023-02-19T11:24:55.413Z,102461.88
2023-02-19T11:30:30.238Z,102471.09
2023-02-19T11:35:31.750Z,102456.13
2023-02-19T11:40:55.819Z,102458.38
2023-02-19T11:46:23.442Z,102468.03
2023-02-19T11:51:38.604Z,102472.25
2023-02-19T11:56:41.663Z,102465.16
2023-02-19T12:02:01.452Z,102473.97
2023-02-19T12:07:37.725Z,102473.81
2023-02-19T12:12:41.943Z,102482.84
2023-02-19T12:17:57.876Z,102491.59
2023-02-19T12:23:32.042Z,102482.09
2023-02-19T12:29:24.615Z,102493.44
2023-02-19T12:34:34.869Z,102510.38
2023-02-19T12:39:52.203Z,102502.75
2023-02-19T12:45:02.840Z,102505.97
2023-02-19T12:50:13.403Z,102523.03
2023-02-19T12:55:17.843Z,102520.88
2023-02-19T13:00:35.499Z,102525.00
2023-02-19T13:05:55.874Z,102527.38
2023-02-19T13:11:10.780Z,102514.63
2023-02-19T13:16:18.871Z,102529.13
2023-02-19T13:21:42.418Z,102523.81
2023-02-19T13:27:14.751Z,102534.63
2023-02-19T13:32:28.262Z,102538.78
2023-02-19T13:37:34.860Z,102552.97
2023-02-19T13:42:36.720Z,102559.19
2023-02-19T13:47:57.391Z,102556.72
2023-02-19T13:53:00.428Z,102545.88
2023-02-19T13:58:32.882Z,102540.44
2023-02-19T14:03:37.316Z,102540.22
2023-02-19T14:08:52.608Z,102519.75
2023-02-19T14:13:55.317Z,102526.84
2023-02-19T14:18:57.132Z,102511.59
2023-02-19T14:24:00.135Z,102491.59
2023-02-19T14:29:02.578Z,102472.84
2023-02-19T14:34:06.603Z,102476.22
2023-02-19T14:39:23.429Z,102485.16
2023-02-19T14:44:31.423Z,102483.91
2023-02-19T14:49:52.747Z,102485.19
2023-02-19T14:55:01.562Z,102495.09
2023-02-19T15:00:20.148Z,102523.25
2023-02-19T15:05:25.897Z,102524.66
2023-02-19T15:10:29.661Z,102525.09
2023-02-19T15:15:36.459Z,102515.75
2023-02-19T15:20:38.204Z,102510.03
2023-02-19T15:25:39.854Z,102515.88
2023-02-19T15:30:41.334Z,102507.44
2023-02-19T15:35:51.836Z,102518.50
2023-02-19T15:40:55.960Z,102531.88
2023-02-19T15:46:02.560Z,102538.63
2023-02-19T15:51:13.223Z,102539.13
2023-02-19T15:56:29.619Z,102550.00
2023-02-19T16:01:37.498Z,102545.00
2023-02-19T16:06:58.596Z,102554.66
2023-02-19T16:12:01.514Z,102545.19
2023-02-19T16:17:14.095Z,102543.66
2023-02-19T16:22:21.862Z,102544.09
2023-02-19T16:27:29.086Z,102552.31
2023-02-19T16:32:30.671Z,102556.63
2023-02-19T16:37:57.373Z,102557.72
2023-02-19T16:43:24.442Z,102555.41
2023-02-19T16:48:26.003Z,102555.53
2023-02-19T16:53:28.926Z,102545.75
2023-02-19T16:58:30.453Z,102542.25
2023-02-19T17:03:31.961Z,102553.34
2023-02-19T17:08:37.111Z,102586.09
2023-02-19T17:13:38.909Z,102591.19
2023-02-19T17:18:40.479Z,102603.41
2023-02-19T17:23:42.128Z,102594.31
2023-02-19T17:28:43.860Z,102577.72
2023-02-19T17:33:45.578Z,102588.59
2023-02-19T17:38:47.324Z,102581.50
2023-02-19T17:43:50.457Z,102577.53
2023-02-19T17:48:53.147Z,102572.00
2023-02-19T17:53:54.639Z,102562.31
2023-02-19T17:58:57.543Z,102563.59
2023-02-19T18:03:59.236Z,102569.03
2023-02-19T18:09:00.752Z,102548.00
2023-02-19T18:14:02.326Z,102551.56
2023-02-19T18:19:03.990Z,102546.22
2023-02-19T18:24:06.093Z,102548.00
2023-02-19T18:29:07.636Z,102549.34
2023-02-19T18:34:16.704Z,102550.53
2023-02-19T18:39:18.341Z,102559.81
2023-02-19T18:44:22.073Z,102546.56
2023-02-19T18:49:24.666Z,102554.59
2023-02-19T18:54:26.470Z,102542.22
2023-02-19T18:59:28.027Z,102545.03
2023-02-19T19:04:29.587Z,102543.88
2023-02-19T19:09:31.143Z,102554.41
2023-02-19T19:14:32.724Z,102556.13
2023-02-19T19:19:34.242Z,102552.16
2023-02-19T19:24:35.987Z,102547.97
2023-02-19T19:29:37.525Z,102538.97
2023-02-19T19:34:39.060Z,102538.09
2023-02-19T19:39:43.248Z,102539.22
2023-02-19T19:44:45.428Z,102532.16
2023-02-19T19:49:47.330Z,102529.75
2023-02-19T19:54:53.794Z,102536.09
2023-02-19T19:59:55.384Z,102529.75
2023-02-19T20:05:01.682Z,102523.66
2023-02-19T20:10:03.627Z,102534.38
2023-02-19T20:15:05.331Z,102523.66
2023-02-19T20:20:07.440Z,102505.56
2023-02-19T20:25:11.188Z,102513.59
2023-02-19T20:30:14.217Z,102504.44
2023-02-19T20:35:17.401Z,102479.19
2023-02-19T20:40:19.131Z,102466.44
2023-02-19T20:45:21.334Z,102473.78
2023-02-19T20:50:23.821Z,102474.72
2023-02-19T20:55:25.987Z,102471.16
2023-02-19T21:00:27.870Z,102476.84
2023-02-19T21:05:29.379Z,102493.66
2023-02-19T21:10:31.209Z,102495.50
2023-02-19T21:15:32.744Z,102490.09
2023-02-19T21:20:34.849Z,102500.34
2023-02-19T21:25:36.381Z,102492.03
2023-02-19T21:30:37.978Z,102492.22
2023-02-19T21:35:39.545Z,102491.34
2023-02-19T21:40:41.004Z,102494.25
2023-02-19T21:45:43.058Z,102503.72
2023-02-19T21:50:45.712Z,102495.44
2023-02-19T21:55:57.867Z,102488.09
2023-02-19T22:01:00.196Z,102482.50
2023-02-19T22:06:02.239Z,102474.28
2023-02-19T22:11:04.002Z,102464.22
2023-02-19T22:16:05.796Z,102467.50
2023-02-19T22:21:07.379Z,102462.31
2023-02-19T22:26:08.851Z,102456.22
2023-02-19T22:31:10.401Z,102436.97
2023-02-19T22:36:23.646Z,102408.50
2023-02-19T22:41:26.097Z,102398.28
2023-02-19T22:46:30.270Z,102392.66
2023-02-19T22:51:33.730Z,102441.22
2023-02-19T22:56:35.320Z,102460.19
2023-02-19T23:01:36.798Z,102463.06
2023-02-19T23:06:41.446Z,102461.44
2023-02-19T23:11:43.040Z,102447.03
2023-02-19T23:16:44.789Z,102443.25
2023-02-19T23:21:46.614Z,102427.69
2023-02-19T23:26:50.845Z,102404.63
2023-02-19T23:31:53.727Z,102388.38
2023-02-19T23:36:55.545Z,102368.53
2023-02-19T23:41:57.700Z,102363.34
2023-02-19T23:46:59.484Z,102346.09
2023-02-19T23:52:00.946Z,102348.41
2023-02-19T23:57:02.481Z,102335.31
